sensor_id;sensor_type;location;lat;lon;timestamp;P1;durP1;ratioP1;P2;durP2;ratioP2
37151;SDS011;23046;50.112;8.952;2024-02-04T00:00:00;0.80;;;0.50;;
37151;SDS011;23046;50.112;8.952;2024-02-04T00:00:10;0.93;;;0.60;;
37151;SDS011;23046;50.112;8.952;2024-02-04T00:00:23;0.60;;;0.60;;
37151;SDS011;23046;50.112;8.952;2024-02-04T00:00:34;0.57;;;0.57;;
37151;SDS011;23046;50.112;8.952;2024-02-04T00:00:44;0.57;;;0.57;;
37151;SDS011;23046;50.112;8.952;2024-02-04T00:00:54;0.60;;;0.60;;
37151;SDS011;23046;50.112;8.952;2024-02-04T00:01:05;0.50;;;0.50;;
37151;SDS011;23046;50.112;8.952;2024-02-04T00:01:15;0.50;;;0.50;;
37151;SDS011;23046;50.112;8.952;2024-02-04T00:01:25;0.60;;;0.60;;
37151;SDS011;23046;50.112;8.952;2024-02-04T00:01:35;0.73;;;0.73;;
37151;SDS011;23046;50.112;8.952;2024-02-04T00:01:45;0.70;;;0.70;;
37151;SDS011;23046;50.112;8.952;2024-02-04T00:01:56;0.73;;;0.73;;
37151;SDS011;23046;50.112;8.952;2024-02-04T00:02:06;0.68;;;0.65;;
37151;SDS011;23046;50.112;8.952;2024-02-04T00:02:17;0.60;;;0.60;;
37151;SDS011;23046;50.112;8.952;2024-02-04T00:02:27;0.52;;;0.50;;
37151;SDS011;23046;50.112;8.952;2024-02-04T00:02:37;0.50;;;0.50;;
37151;SDS011;23046;50.112;8.952;2024-02-04T00:02:48;0.50;;;0.50;;
37151;SDS011;23046;50.112;8.952;2024-02-04T00:02:58;0.50;;;0.50;;
37151;SDS011;23046;50.112;8.952;2024-02-04T00:03:09;0.50;;;0.50;;
37151;SDS011;23046;50.112;8.952;2024-02-04T00:03:19;0.50;;;0.50;;
37151;SDS011;23046;50.112;8.952;2024-02-04T00:03:29;0.50;;;0.50;;
37151;SDS011;23046;50.112;8.952;2024-02-04T00:03:39;0.45;;;0.45;;
37151;SDS011;23046;50.112;8.952;2024-02-04T00:03:49;0.47;;;0.47;;
37151;SDS011;23046;50.112;8.952;2024-02-04T00:04:00;0.50;;;0.50;;
37151;SDS011;23046;50.112;8.952;2024-02-04T00:04:10;0.50;;;0.50;;
37151;SDS011;23046;50.112;8.952;2024-02-04T00:04:20;0.90;;;0.57;;
37151;SDS011;23046;50.112;8.952;2024-02-04T00:04:30;1.00;;;0.60;;
37151;SDS011;23046;50.112;8.952;2024-02-04T00:04:42;1.00;;;0.60;;
37151;SDS011;23046;50.112;8.952;2024-02-04T00:04:52;0.50;;;0.50;;
37151;SDS011;23046;50.112;8.952;2024-02-04T00:05:02;0.50;;;0.50;;
37151;SDS011;23046;50.112;8.952;2024-02-04T00:05:13;0.60;;;0.60;;
37151;SDS011;23046;50.112;8.952;2024-02-04T00:05:23;0.63;;;0.50;;
37151;SDS011;23046;50.112;8.952;2024-02-04T00:05:33;0.83;;;0.60;;
37151;SDS011;23046;50.112;8.952;2024-02-04T00:05:43;0.68;;;0.45;;
37151;SDS011;23046;50.112;8.952;2024-02-04T00:05:54;0.57;;;0.50;;
37151;SDS011;23046;50.112;8.952;2024-02-04T00:06:04;0.47;;;0.47;;
37151;SDS011;23046;50.112;8.952;2024-02-04T00:06:14;0.50;;;0.50;;
37151;SDS011;23046;50.112;8.952;2024-02-04T00:06:24;0.77;;;0.60;;
37151;SDS011;23046;50.112;8.952;2024-02-04T00:06:34;0.82;;;0.60;;
37151;SDS011;23046;50.112;8.952;2024-02-04T00:06:45;0.70;;;0.53;;
37151;SDS011;23046;50.112;8.952;2024-02-04T00:06:55;0.40;;;0.40;;
37151;SDS011;23046;50.112;8.952;2024-02-04T00:07:05;0.40;;;0.40;;
37151;SDS011;23046;50.112;8.952;2024-02-04T00:07:15;0.57;;;0.57;;
37151;SDS011;23046;50.112;8.952;2024-02-04T00:07:25;0.70;;;0.70;;
37151;SDS011;23046;50.112;8.952;2024-02-04T00:07:35;0.70;;;0.70;;
37151;SDS011;23046;50.112;8.952;2024-02-04T00:07:46;0.57;;;0.57;;
37151;SDS011;23046;50.112;8.952;2024-02-04T00:07:56;0.50;;;0.50;;
37151;SDS011;23046;50.112;8.952;2024-02-04T00:08:06;0.47;;;0.47;;
37151;SDS011;23046;50.112;8.952;2024-02-04T00:08:16;0.43;;;0.43;;
37151;SDS011;23046;50.112;8.952;2024-02-04T00:08:27;0.40;;;0.40;;
37151;SDS011;23046;50.112;8.952;2024-02-04T00:08:37;0.40;;;0.40;;
37151;SDS011;23046;50.112;8.952;2024-02-04T00:08:47;0.43;;;0.43;;
37151;SDS011;23046;50.112;8.952;2024-02-04T00:08:57;0.60;;;0.50;;
37151;SDS011;23046;50.112;8.952;2024-02-04T00:09:08;0.73;;;0.60;;
37151;SDS011;23046;50.112;8.952;2024-02-04T00:09:18;0.60;;;0.60;;
37151;SDS011;23046;50.112;8.952;2024-02-04T00:09:28;0.60;;;0.60;;
37151;SDS011;23046;50.112;8.952;2024-02-04T00:09:39;0.60;;;0.60;;
37151;SDS011;23046;50.112;8.952;2024-02-04T00:09:49;1.80;;;0.60;;
37151;SDS011;23046;50.112;8.952;2024-02-04T00:09:59;1.70;;;0.50;;
37151;SDS011;23046;50.112;8.952;2024-02-04T00:10:09;1.60;;;0.50;;
37151;SDS011;23046;50.112;8.952;2024-02-04T00:10:19;0.53;;;0.50;;
37151;SDS011;23046;50.112;8.952;2024-02-04T00:10:30;0.60;;;0.55;;
37151;SDS011;23046;50.112;8.952;2024-02-04T00:10:40;0.60;;;0.60;;
37151;SDS011;23046;50.112;8.952;2024-02-04T00:10:50;0.60;;;0.60;;
37151;SDS011;23046;50.112;8.952;2024-02-04T00:11:01;0.70;;;0.70;;
37151;SDS011;23046;50.112;8.952;2024-02-04T00:11:11;0.77;;;0.77;;
37151;SDS011;23046;50.112;8.952;2024-02-04T00:11:22;0.60;;;0.60;;
37151;SDS011;23046;50.112;8.952;2024-02-04T00:11:32;0.65;;;0.50;;
37151;SDS011;23046;50.112;8.952;2024-02-04T00:11:42;0.63;;;0.50;;
37151;SDS011;23046;50.112;8.952;2024-02-04T00:11:52;0.80;;;0.60;;
37151;SDS011;23046;50.112;8.952;2024-02-04T00:12:02;0.57;;;0.57;;
37151;SDS011;23046;50.112;8.952;2024-02-04T00:12:13;0.60;;;0.60;;
37151;SDS011;23046;50.112;8.952;2024-02-04T00:12:24;0.67;;;0.67;;
37151;SDS011;23046;50.112;8.952;2024-02-04T00:12:34;0.63;;;0.63;;
37151;SDS011;23046;50.112;8.952;2024-02-04T00:12:44;0.60;;;0.60;;
37151;SDS011;23046;50.112;8.952;2024-02-04T00:12:54;0.60;;;0.60;;
37151;SDS011;23046;50.112;8.952;2024-02-04T00:13:04;0.57;;;0.50;;
37151;SDS011;23046;50.112;8.952;2024-02-04T00:13:15;0.50;;;0.50;;
37151;SDS011;23046;50.112;8.952;2024-02-04T00:13:25;0.40;;;0.40;;
37151;SDS011;23046;50.112;8.952;2024-02-04T00:13:35;0.50;;;0.50;;
37151;SDS011;23046;50.112;8.952;2024-02-04T00:13:45;0.50;;;0.50;;
37151;SDS011;23046;50.112;8.952;2024-02-04T00:13:56;0.50;;;0.50;;
37151;SDS011;23046;50.112;8.952;2024-02-04T00:14:06;0.50;;;0.50;;
37151;SDS011;23046;50.112;8.952;2024-02-04T00:14:16;0.50;;;0.50;;
37151;SDS011;23046;50.112;8.952;2024-02-04T00:14:26;0.53;;;0.53;;
37151;SDS011;23046;50.112;8.952;2024-02-04T00:14:36;0.60;;;0.60;;
37151;SDS011;23046;50.112;8.952;2024-02-04T00:14:47;0.60;;;0.60;;
37151;SDS011;23046;50.112;8.952;2024-02-04T00:14:59;0.57;;;0.57;;
37151;SDS011;23046;50.112;8.952;2024-02-04T00:15:09;0.50;;;0.50;;
37151;SDS011;23046;50.112;8.952;2024-02-04T00:15:20;0.80;;;0.50;;
37151;SDS011;23046;50.112;8.952;2024-02-04T00:15:30;0.70;;;0.53;;
37151;SDS011;23046;50.112;8.952;2024-02-04T00:15:40;0.65;;;0.60;;
37151;SDS011;23046;50.112;8.952;2024-02-04T00:15:50;0.63;;;0.63;;
37151;SDS011;23046;50.112;8.952;2024-02-04T00:16:04;0.63;;;0.63;;
37151;SDS011;23046;50.112;8.952;2024-02-04T00:16:15;0.60;;;0.60;;
37151;SDS011;23046;50.112;8.952;2024-02-04T00:16:25;0.60;;;0.60;;
37151;SDS011;23046;50.112;8.952;2024-02-04T00:16:35;0.67;;;0.67;;
37151;SDS011;23046;50.112;8.952;2024-02-04T00:16:46;0.63;;;0.63;;
37151;SDS011;23046;50.112;8.952;2024-02-04T00:16:56;0.60;;;0.60;;
37151;SDS011;23046;50.112;8.952;2024-02-04T00:17:06;0.80;;;0.70;;
37151;SDS011;23046;50.112;8.952;2024-02-04T00:17:16;1.00;;;0.67;;
37151;SDS011;23046;50.112;8.952;2024-02-04T00:17:26;1.03;;;0.70;;
37151;SDS011;23046;50.112;8.952;2024-02-04T00:17:40;0.52;;;0.52;;
37151;SDS011;23046;50.112;8.952;2024-02-04T00:17:50;0.50;;;0.50;;
37151;SDS011;23046;50.112;8.952;2024-02-04T00:18:00;0.50;;;0.50;;
37151;SDS011;23046;50.112;8.952;2024-02-04T00:18:11;0.50;;;0.50;;
37151;SDS011;23046;50.112;8.952;2024-02-04T00:18:21;0.60;;;0.60;;
37151;SDS011;23046;50.112;8.952;2024-02-04T00:18:31;0.60;;;0.60;;
37151;SDS011;23046;50.112;8.952;2024-02-04T00:18:42;0.65;;;0.65;;
37151;SDS011;23046;50.112;8.952;2024-02-04T00:18:53;0.60;;;0.60;;
37151;SDS011;23046;50.112;8.952;2024-02-04T00:19:03;0.60;;;0.60;;
37151;SDS011;23046;50.112;8.952;2024-02-04T00:19:13;0.60;;;0.60;;
37151;SDS011;23046;50.112;8.952;2024-02-04T00:19:23;0.60;;;0.60;;
37151;SDS011;23046;50.112;8.952;2024-02-04T00:19:33;0.60;;;0.60;;
37151;SDS011;23046;50.112;8.952;2024-02-04T00:19:44;0.60;;;0.60;;
37151;SDS011;23046;50.112;8.952;2024-02-04T00:19:54;0.60;;;0.60;;
37151;SDS011;23046;50.112;8.952;2024-02-04T00:20:04;0.70;;;0.70;;
37151;SDS011;23046;50.112;8.952;2024-02-04T00:20:15;0.80;;;0.80;;
37151;SDS011;23046;50.112;8.952;2024-02-04T00:20:26;0.70;;;0.70;;
37151;SDS011;23046;50.112;8.952;2024-02-04T00:20:37;0.82;;;0.70;;
37151;SDS011;23046;50.112;8.952;2024-02-04T00:20:47;0.80;;;0.60;;
37151;SDS011;23046;50.112;8.952;2024-02-04T00:20:58;0.80;;;0.70;;
37151;SDS011;23046;50.112;8.952;2024-02-04T00:21:08;0.60;;;0.60;;
37151;SDS011;23046;50.112;8.952;2024-02-04T00:21:18;0.60;;;0.60;;
37151;SDS011;23046;50.112;8.952;2024-02-04T00:21:28;0.50;;;0.50;;
37151;SDS011;23046;50.112;8.952;2024-02-04T00:21:39;0.60;;;0.60;;
37151;SDS011;23046;50.112;8.952;2024-02-04T00:21:49;0.60;;;0.60;;
37151;SDS011;23046;50.112;8.952;2024-02-04T00:21:59;0.60;;;0.60;;
37151;SDS011;23046;50.112;8.952;2024-02-04T00:22:09;0.60;;;0.60;;
37151;SDS011;23046;50.112;8.952;2024-02-04T00:22:19;0.50;;;0.50;;
37151;SDS011;23046;50.112;8.952;2024-02-04T00:22:30;0.50;;;0.50;;
37151;SDS011;23046;50.112;8.952;2024-02-04T00:22:40;0.50;;;0.50;;
37151;SDS011;23046;50.112;8.952;2024-02-04T00:22:50;0.50;;;0.50;;
37151;SDS011;23046;50.112;8.952;2024-02-04T00:23:00;0.50;;;0.50;;
37151;SDS011;23046;50.112;8.952;2024-02-04T00:23:10;0.68;;;0.68;;
37151;SDS011;23046;50.112;8.952;2024-02-04T00:23:21;0.70;;;0.70;;
37151;SDS011;23046;50.112;8.952;2024-02-04T00:23:31;0.60;;;0.60;;
37151;SDS011;23046;50.112;8.952;2024-02-04T00:23:41;0.50;;;0.50;;
37151;SDS011;23046;50.112;8.952;2024-02-04T00:23:51;0.40;;;0.40;;
37151;SDS011;23046;50.112;8.952;2024-02-04T00:24:01;0.43;;;0.43;;
37151;SDS011;23046;50.112;8.952;2024-02-04T00:24:12;0.50;;;0.50;;
37151;SDS011;23046;50.112;8.952;2024-02-04T00:24:22;0.53;;;0.53;;
37151;SDS011;23046;50.112;8.952;2024-02-04T00:24:32;0.60;;;0.60;;
37151;SDS011;23046;50.112;8.952;2024-02-04T00:24:42;0.57;;;0.57;;
37151;SDS011;23046;50.112;8.952;2024-02-04T00:24:52;0.67;;;0.67;;
37151;SDS011;23046;50.112;8.952;2024-02-04T00:25:03;0.70;;;0.70;;
37151;SDS011;23046;50.112;8.952;2024-02-04T00:25:15;0.70;;;0.70;;
37151;SDS011;23046;50.112;8.952;2024-02-04T00:25:29;0.70;;;0.70;;
37151;SDS011;23046;50.112;8.952;2024-02-04T00:25:39;0.70;;;0.70;;
37151;SDS011;23046;50.112;8.952;2024-02-04T00:25:51;0.60;;;0.60;;
37151;SDS011;23046;50.112;8.952;2024-02-04T00:26:01;0.53;;;0.53;;
37151;SDS011;23046;50.112;8.952;2024-02-04T00:26:12;0.50;;;0.50;;
37151;SDS011;23046;50.112;8.952;2024-02-04T00:26:22;0.50;;;0.50;;
37151;SDS011;23046;50.112;8.952;2024-02-04T00:26:33;0.65;;;0.65;;
37151;SDS011;23046;50.112;8.952;2024-02-04T00:26:43;1.00;;;0.70;;
37151;SDS011;23046;50.112;8.952;2024-02-04T00:26:53;0.90;;;0.70;;
37151;SDS011;23046;50.112;8.952;2024-02-04T00:27:04;0.80;;;0.60;;
37151;SDS011;23046;50.112;8.952;2024-02-04T00:27:14;0.80;;;0.55;;
37151;SDS011;23046;50.112;8.952;2024-02-04T00:27:24;0.73;;;0.60;;
37151;SDS011;23046;50.112;8.952;2024-02-04T00:27:34;0.70;;;0.60;;
37151;SDS011;23046;50.112;8.952;2024-02-04T00:27:44;0.70;;;0.70;;
37151;SDS011;23046;50.112;8.952;2024-02-04T00:27:55;0.70;;;0.70;;
37151;SDS011;23046;50.112;8.952;2024-02-04T00:28:05;1.10;;;0.70;;
37151;SDS011;23046;50.112;8.952;2024-02-04T00:28:16;0.97;;;0.63;;
37151;SDS011;23046;50.112;8.952;2024-02-04T00:28:26;0.90;;;0.60;;
37151;SDS011;23046;50.112;8.952;2024-02-04T00:28:38;0.65;;;0.65;;
37151;SDS011;23046;50.112;8.952;2024-02-04T00:28:50;0.70;;;0.70;;
37151;SDS011;23046;50.112;8.952;2024-02-04T00:29:00;0.80;;;0.80;;
37151;SDS011;23046;50.112;8.952;2024-02-04T00:29:10;0.70;;;0.70;;
37151;SDS011;23046;50.112;8.952;2024-02-04T00:29:20;0.70;;;0.70;;
37151;SDS011;23046;50.112;8.952;2024-02-04T00:29:30;0.60;;;0.60;;
37151;SDS011;23046;50.112;8.952;2024-02-04T00:29:41;0.67;;;0.67;;
37151;SDS011;23046;50.112;8.952;2024-02-04T00:29:51;0.55;;;0.55;;
37151;SDS011;23046;50.112;8.952;2024-02-04T00:30:01;0.50;;;0.50;;
37151;SDS011;23046;50.112;8.952;2024-02-04T00:30:12;0.50;;;0.50;;
37151;SDS011;23046;50.112;8.952;2024-02-04T00:30:22;0.60;;;0.60;;
37151;SDS011;23046;50.112;8.952;2024-02-04T00:30:33;0.60;;;0.60;;
37151;SDS011;23046;50.112;8.952;2024-02-04T00:30:43;0.60;;;0.60;;
37151;SDS011;23046;50.112;8.952;2024-02-04T00:30:53;0.60;;;0.60;;
37151;SDS011;23046;50.112;8.952;2024-02-04T00:31:05;0.63;;;0.63;;
37151;SDS011;23046;50.112;8.952;2024-02-04T00:31:16;0.90;;;0.63;;
37151;SDS011;23046;50.112;8.952;2024-02-04T00:31:26;0.90;;;0.60;;
37151;SDS011;23046;50.112;8.952;2024-02-04T00:31:36;1.08;;;0.60;;
37151;SDS011;23046;50.112;8.952;2024-02-04T00:31:46;0.70;;;0.60;;
37151;SDS011;23046;50.112;8.952;2024-02-04T00:31:56;0.70;;;0.60;;
37151;SDS011;23046;50.112;8.952;2024-02-04T00:32:06;0.50;;;0.50;;
37151;SDS011;23046;50.112;8.952;2024-02-04T00:32:17;0.50;;;0.50;;
37151;SDS011;23046;50.112;8.952;2024-02-04T00:32:27;0.50;;;0.50;;
37151;SDS011;23046;50.112;8.952;2024-02-04T00:32:37;0.70;;;0.57;;
37151;SDS011;23046;50.112;8.952;2024-02-04T00:32:47;0.70;;;0.50;;
37151;SDS011;23046;50.112;8.952;2024-02-04T00:32:57;0.50;;;0.50;;
37151;SDS011;23046;50.112;8.952;2024-02-04T00:33:12;0.50;;;0.50;;
37151;SDS011;23046;50.112;8.952;2024-02-04T00:33:23;0.60;;;0.60;;
37151;SDS011;23046;50.112;8.952;2024-02-04T00:33:33;0.60;;;0.60;;
37151;SDS011;23046;50.112;8.952;2024-02-04T00:33:43;0.60;;;0.50;;
37151;SDS011;23046;50.112;8.952;2024-02-04T00:33:53;0.67;;;0.60;;
37151;SDS011;23046;50.112;8.952;2024-02-04T00:34:03;0.73;;;0.70;;
37151;SDS011;23046;50.112;8.952;2024-02-04T00:34:15;0.80;;;0.80;;
37151;SDS011;23046;50.112;8.952;2024-02-04T00:34:25;0.70;;;0.70;;
37151;SDS011;23046;50.112;8.952;2024-02-04T00:34:35;0.63;;;0.63;;
37151;SDS011;23046;50.112;8.952;2024-02-04T00:34:45;0.70;;;0.70;;
37151;SDS011;23046;50.112;8.952;2024-02-04T00:34:56;0.70;;;0.70;;
37151;SDS011;23046;50.112;8.952;2024-02-04T00:35:06;0.60;;;0.60;;
37151;SDS011;23046;50.112;8.952;2024-02-04T00:35:16;0.50;;;0.50;;
37151;SDS011;23046;50.112;8.952;2024-02-04T00:35:26;0.50;;;0.50;;
37151;SDS011;23046;50.112;8.952;2024-02-04T00:35:37;0.60;;;0.60;;
37151;SDS011;23046;50.112;8.952;2024-02-04T00:35:47;0.50;;;0.50;;
37151;SDS011;23046;50.112;8.952;2024-02-04T00:35:57;0.40;;;0.40;;
37151;SDS011;23046;50.112;8.952;2024-02-04T00:36:07;0.40;;;0.40;;
37151;SDS011;23046;50.112;8.952;2024-02-04T00:36:18;0.40;;;0.40;;
37151;SDS011;23046;50.112;8.952;2024-02-04T00:36:29;0.60;;;0.60;;
37151;SDS011;23046;50.112;8.952;2024-02-04T00:36:39;0.70;;;0.70;;
37151;SDS011;23046;50.112;8.952;2024-02-04T00:36:49;0.67;;;0.67;;
37151;SDS011;23046;50.112;8.952;2024-02-04T00:36:59;0.60;;;0.60;;
37151;SDS011;23046;50.112;8.952;2024-02-04T00:37:10;0.57;;;0.57;;
37151;SDS011;23046;50.112;8.952;2024-02-04T00:37:20;0.60;;;0.60;;
37151;SDS011;23046;50.112;8.952;2024-02-04T00:37:30;0.75;;;0.63;;
37151;SDS011;23046;50.112;8.952;2024-02-04T00:37:40;1.50;;;0.70;;
37151;SDS011;23046;50.112;8.952;2024-02-04T00:37:51;1.50;;;0.70;;
37151;SDS011;23046;50.112;8.952;2024-02-04T00:38:01;1.20;;;0.60;;
37151;SDS011;23046;50.112;8.952;2024-02-04T00:38:13;0.57;;;0.57;;
37151;SDS011;23046;50.112;8.952;2024-02-04T00:38:23;0.60;;;0.60;;
37151;SDS011;23046;50.112;8.952;2024-02-04T00:38:33;0.70;;;0.70;;
37151;SDS011;23046;50.112;8.952;2024-02-04T00:38:43;0.70;;;0.70;;
37151;SDS011;23046;50.112;8.952;2024-02-04T00:38:54;0.70;;;0.70;;
37151;SDS011;23046;50.112;8.952;2024-02-04T00:39:04;0.73;;;0.73;;
37151;SDS011;23046;50.112;8.952;2024-02-04T00:39:15;0.70;;;0.70;;
37151;SDS011;23046;50.112;8.952;2024-02-04T00:39:25;0.70;;;0.70;;
37151;SDS011;23046;50.112;8.952;2024-02-04T00:39:35;0.60;;;0.60;;
37151;SDS011;23046;50.112;8.952;2024-02-04T00:39:46;0.60;;;0.60;;
37151;SDS011;23046;50.112;8.952;2024-02-04T00:39:56;0.60;;;0.60;;
37151;SDS011;23046;50.112;8.952;2024-02-04T00:40:06;0.70;;;0.70;;
37151;SDS011;23046;50.112;8.952;2024-02-04T00:40:17;0.70;;;0.70;;
37151;SDS011;23046;50.112;8.952;2024-02-04T00:40:27;0.70;;;0.70;;
37151;SDS011;23046;50.112;8.952;2024-02-04T00:40:37;0.90;;;0.60;;
37151;SDS011;23046;50.112;8.952;2024-02-04T00:40:47;0.88;;;0.52;;
37151;SDS011;23046;50.112;8.952;2024-02-04T00:40:58;0.70;;;0.50;;
37151;SDS011;23046;50.112;8.952;2024-02-04T00:41:08;0.50;;;0.50;;
37151;SDS011;23046;50.112;8.952;2024-02-04T00:41:18;0.57;;;0.57;;
37151;SDS011;23046;50.112;8.952;2024-02-04T00:41:28;0.50;;;0.50;;
37151;SDS011;23046;50.112;8.952;2024-02-04T00:41:38;0.50;;;0.50;;
37151;SDS011;23046;50.112;8.952;2024-02-04T00:41:48;0.50;;;0.50;;
37151;SDS011;23046;50.112;8.952;2024-02-04T00:41:59;0.70;;;0.60;;
37151;SDS011;23046;50.112;8.952;2024-02-04T00:42:09;0.70;;;0.70;;
37151;SDS011;23046;50.112;8.952;2024-02-04T00:42:20;0.63;;;0.63;;
37151;SDS011;23046;50.112;8.952;2024-02-04T00:42:30;0.50;;;0.50;;
37151;SDS011;23046;50.112;8.952;2024-02-04T00:42:40;0.50;;;0.50;;
37151;SDS011;23046;50.112;8.952;2024-02-04T00:42:50;0.50;;;0.50;;
37151;SDS011;23046;50.112;8.952;2024-02-04T00:43:01;0.80;;;0.60;;
37151;SDS011;23046;50.112;8.952;2024-02-04T00:43:11;0.90;;;0.70;;
37151;SDS011;23046;50.112;8.952;2024-02-04T00:43:21;0.93;;;0.73;;
37151;SDS011;23046;50.112;8.952;2024-02-04T00:43:31;0.73;;;0.70;;
37151;SDS011;23046;50.112;8.952;2024-02-04T00:43:41;0.63;;;0.63;;
37151;SDS011;23046;50.112;8.952;2024-02-04T00:43:51;0.60;;;0.60;;
37151;SDS011;23046;50.112;8.952;2024-02-04T00:44:02;0.68;;;0.68;;
37151;SDS011;23046;50.112;8.952;2024-02-04T00:44:12;0.80;;;0.80;;
37151;SDS011;23046;50.112;8.952;2024-02-04T00:44:23;0.80;;;0.80;;
37151;SDS011;23046;50.112;8.952;2024-02-04T00:44:33;1.90;;;0.80;;
37151;SDS011;23046;50.112;8.952;2024-02-04T00:44:43;1.80;;;0.70;;
37151;SDS011;23046;50.112;8.952;2024-02-04T00:44:53;2.33;;;0.70;;
37151;SDS011;23046;50.112;8.952;2024-02-04T00:45:03;1.20;;;0.60;;
37151;SDS011;23046;50.112;8.952;2024-02-04T00:45:14;1.20;;;0.57;;
37151;SDS011;23046;50.112;8.952;2024-02-04T00:45:24;0.60;;;0.60;;
37151;SDS011;23046;50.112;8.952;2024-02-04T00:45:34;0.70;;;0.70;;
37151;SDS011;23046;50.112;8.952;2024-02-04T00:45:45;0.70;;;0.70;;
37151;SDS011;23046;50.112;8.952;2024-02-04T00:45:55;0.63;;;0.63;;
37151;SDS011;23046;50.112;8.952;2024-02-04T00:46:06;0.68;;;0.60;;
37151;SDS011;23046;50.112;8.952;2024-02-04T00:46:17;0.63;;;0.52;;
37151;SDS011;23046;50.112;8.952;2024-02-04T00:46:28;0.73;;;0.60;;
37151;SDS011;23046;50.112;8.952;2024-02-04T00:46:38;0.60;;;0.60;;
37151;SDS011;23046;50.112;8.952;2024-02-04T00:46:48;0.70;;;0.70;;
37151;SDS011;23046;50.112;8.952;2024-02-04T00:46:58;0.67;;;0.67;;
37151;SDS011;23046;50.112;8.952;2024-02-04T00:47:08;0.50;;;0.50;;
37151;SDS011;23046;50.112;8.952;2024-02-04T00:47:19;0.40;;;0.40;;
37151;SDS011;23046;50.112;8.952;2024-02-04T00:47:29;0.55;;;0.55;;
37151;SDS011;23046;50.112;8.952;2024-02-04T00:47:39;0.60;;;0.60;;
37151;SDS011;23046;50.112;8.952;2024-02-04T00:47:49;0.60;;;0.60;;
37151;SDS011;23046;50.112;8.952;2024-02-04T00:48:00;0.50;;;0.50;;
37151;SDS011;23046;50.112;8.952;2024-02-04T00:48:10;0.55;;;0.55;;
37151;SDS011;23046;50.112;8.952;2024-02-04T00:48:20;0.60;;;0.60;;
37151;SDS011;23046;50.112;8.952;2024-02-04T00:48:30;0.70;;;0.70;;
37151;SDS011;23046;50.112;8.952;2024-02-04T00:48:40;0.73;;;0.67;;
37151;SDS011;23046;50.112;8.952;2024-02-04T00:48:51;0.73;;;0.70;;
37151;SDS011;23046;50.112;8.952;2024-02-04T00:49:01;1.00;;;0.63;;
37151;SDS011;23046;50.112;8.952;2024-02-04T00:49:11;0.90;;;0.70;;
37151;SDS011;23046;50.112;8.952;2024-02-04T00:49:21;0.93;;;0.70;;
37151;SDS011;23046;50.112;8.952;2024-02-04T00:49:31;0.80;;;0.70;;
37151;SDS011;23046;50.112;8.952;2024-02-04T00:49:42;0.70;;;0.60;;
37151;SDS011;23046;50.112;8.952;2024-02-04T00:49:52;0.68;;;0.57;;
37151;SDS011;23046;50.112;8.952;2024-02-04T00:50:04;0.52;;;0.52;;
37151;SDS011;23046;50.112;8.952;2024-02-04T00:50:14;0.70;;;0.70;;
37151;SDS011;23046;50.112;8.952;2024-02-04T00:50:24;0.77;;;0.77;;
37151;SDS011;23046;50.112;8.952;2024-02-04T00:50:35;0.80;;;0.80;;
37151;SDS011;23046;50.112;8.952;2024-02-04T00:50:45;0.80;;;0.80;;
37151;SDS011;23046;50.112;8.952;2024-02-04T00:50:55;0.90;;;0.70;;
37151;SDS011;23046;50.112;8.952;2024-02-04T00:51:06;0.87;;;0.70;;
37151;SDS011;23046;50.112;8.952;2024-02-04T00:51:16;0.70;;;0.60;;
37151;SDS011;23046;50.112;8.952;2024-02-04T00:51:27;0.67;;;0.67;;
37151;SDS011;23046;50.112;8.952;2024-02-04T00:51:37;0.70;;;0.70;;
37151;SDS011;23046;50.112;8.952;2024-02-04T00:51:47;0.70;;;0.70;;
37151;SDS011;23046;50.112;8.952;2024-02-04T00:51:57;0.57;;;0.57;;
37151;SDS011;23046;50.112;8.952;2024-02-04T00:52:08;0.57;;;0.57;;
37151;SDS011;23046;50.112;8.952;2024-02-04T00:52:18;0.60;;;0.60;;
37151;SDS011;23046;50.112;8.952;2024-02-04T00:52:28;0.70;;;0.70;;
37151;SDS011;23046;50.112;8.952;2024-02-04T00:52:38;0.70;;;0.70;;
37151;SDS011;23046;50.112;8.952;2024-02-04T00:52:48;0.93;;;0.80;;
37151;SDS011;23046;50.112;8.952;2024-02-04T00:52:59;0.80;;;0.70;;
37151;SDS011;23046;50.112;8.952;2024-02-04T00:53:09;0.90;;;0.70;;
37151;SDS011;23046;50.112;8.952;2024-02-04T00:53:19;0.63;;;0.63;;
37151;SDS011;23046;50.112;8.952;2024-02-04T00:53:29;0.70;;;0.70;;
37151;SDS011;23046;50.112;8.952;2024-02-04T00:53:43;0.60;;;0.60;;
37151;SDS011;23046;50.112;8.952;2024-02-04T00:53:54;0.60;;;0.60;;
37151;SDS011;23046;50.112;8.952;2024-02-04T00:54:05;0.63;;;0.63;;
37151;SDS011;23046;50.112;8.952;2024-02-04T00:54:16;0.70;;;0.70;;
37151;SDS011;23046;50.112;8.952;2024-02-04T00:54:26;0.80;;;0.70;;
37151;SDS011;23046;50.112;8.952;2024-02-04T00:54:36;0.70;;;0.70;;
37151;SDS011;23046;50.112;8.952;2024-02-04T00:54:47;0.80;;;0.60;;
37151;SDS011;23046;50.112;8.952;2024-02-04T00:54:57;0.67;;;0.60;;
37151;SDS011;23046;50.112;8.952;2024-02-04T00:55:08;0.70;;;0.60;;
37151;SDS011;23046;50.112;8.952;2024-02-04T00:55:18;0.70;;;0.60;;
37151;SDS011;23046;50.112;8.952;2024-02-04T00:55:29;0.65;;;0.60;;
37151;SDS011;23046;50.112;8.952;2024-02-04T00:55:40;0.70;;;0.60;;
37151;SDS011;23046;50.112;8.952;2024-02-04T00:55:50;0.60;;;0.60;;
37151;SDS011;23046;50.112;8.952;2024-02-04T00:56:01;0.60;;;0.60;;
37151;SDS011;23046;50.112;8.952;2024-02-04T00:56:11;0.60;;;0.60;;
37151;SDS011;23046;50.112;8.952;2024-02-04T00:56:21;0.60;;;0.60;;
37151;SDS011;23046;50.112;8.952;2024-02-04T00:56:32;0.70;;;0.70;;
37151;SDS011;23046;50.112;8.952;2024-02-04T00:56:42;0.80;;;0.80;;
37151;SDS011;23046;50.112;8.952;2024-02-04T00:56:52;0.70;;;0.70;;
37151;SDS011;23046;50.112;8.952;2024-02-04T00:57:02;0.60;;;0.60;;
37151;SDS011;23046;50.112;8.952;2024-02-04T00:57:13;0.50;;;0.50;;
37151;SDS011;23046;50.112;8.952;2024-02-04T00:57:23;0.50;;;0.50;;
37151;SDS011;23046;50.112;8.952;2024-02-04T00:57:33;0.50;;;0.50;;
37151;SDS011;23046;50.112;8.952;2024-02-04T00:57:43;0.60;;;0.60;;
37151;SDS011;23046;50.112;8.952;2024-02-04T00:57:53;0.60;;;0.60;;
37151;SDS011;23046;50.112;8.952;2024-02-04T00:58:05;0.60;;;0.60;;
37151;SDS011;23046;50.112;8.952;2024-02-04T00:58:15;0.60;;;0.60;;
37151;SDS011;23046;50.112;8.952;2024-02-04T00:58:26;0.70;;;0.70;;
37151;SDS011;23046;50.112;8.952;2024-02-04T00:58:36;0.70;;;0.70;;
37151;SDS011;23046;50.112;8.952;2024-02-04T00:58:46;0.70;;;0.70;;
37151;SDS011;23046;50.112;8.952;2024-02-04T00:58:56;0.70;;;0.70;;
37151;SDS011;23046;50.112;8.952;2024-02-04T00:59:06;0.70;;;0.70;;
37151;SDS011;23046;50.112;8.952;2024-02-04T00:59:17;0.60;;;0.60;;
37151;SDS011;23046;50.112;8.952;2024-02-04T00:59:27;0.60;;;0.60;;
37151;SDS011;23046;50.112;8.952;2024-02-04T00:59:37;0.60;;;0.60;;
37151;SDS011;23046;50.112;8.952;2024-02-04T00:59:47;1.00;;;0.60;;
37151;SDS011;23046;50.112;8.952;2024-02-04T00:59:57;1.00;;;0.60;;
37151;SDS011;23046;50.112;8.952;2024-02-04T01:00:08;1.00;;;0.60;;
37151;SDS011;23046;50.112;8.952;2024-02-04T01:00:19;1.40;;;0.60;;
37151;SDS011;23046;50.112;8.952;2024-02-04T01:00:29;1.50;;;0.70;;
37151;SDS011;23046;50.112;8.952;2024-02-04T01:00:39;2.37;;;0.73;;
37151;SDS011;23046;50.112;8.952;2024-02-04T01:00:49;1.43;;;0.70;;
37151;SDS011;23046;50.112;8.952;2024-02-04T01:01:00;1.50;;;0.75;;
37151;SDS011;23046;50.112;8.952;2024-02-04T01:01:10;0.73;;;0.70;;
37151;SDS011;23046;50.112;8.952;2024-02-04T01:01:20;0.80;;;0.77;;
37151;SDS011;23046;50.112;8.952;2024-02-04T01:01:31;0.73;;;0.70;;
37151;SDS011;23046;50.112;8.952;2024-02-04T01:01:41;0.70;;;0.70;;
37151;SDS011;23046;50.112;8.952;2024-02-04T01:01:52;0.60;;;0.60;;
37151;SDS011;23046;50.112;8.952;2024-02-04T01:02:02;0.50;;;0.50;;
37151;SDS011;23046;50.112;8.952;2024-02-04T01:02:13;0.55;;;0.55;;
37151;SDS011;23046;50.112;8.952;2024-02-04T01:02:23;0.70;;;0.70;;
37151;SDS011;23046;50.112;8.952;2024-02-04T01:02:33;0.70;;;0.70;;